sensor_id;sensor_type;location;lat;lon;timestamp;pressure;altitude;pressure_sealevel;temperature;humidity
85153;BME280;75520;43.358;19.362;2024-02-23T00:01:15;92412.94;;;7.06;69.97
85153;BME280;75520;43.358;19.362;2024-02-23T00:03:41;92396.00;;;7.07;69.35
85153;BME280;75520;43.358;19.362;2024-02-23T00:06:06;92426.56;;;7.29;68.96
85153;BME280;75520;43.358;19.362;2024-02-23T00:08:32;92435.38;;;7.33;69.21
85153;BME280;75520;43.358;19.362;2024-02-23T00:10:58;92420.75;;;7.36;68.52
85153;BME280;75520;43.358;19.362;2024-02-23T00:13:23;92420.44;;;7.37;68.72
85153;BME280;75520;43.358;19.362;2024-02-23T00:15:48;92420.88;;;7.39;68.62
85153;BME280;75520;43.358;19.362;2024-02-23T00:18:14;92412.69;;;7.32;68.65
85153;BME280;75520;43.358;19.362;2024-02-23T00:20:41;92424.41;;;7.43;68.23
85153;BME280;75520;43.358;19.362;2024-02-23T00:23:07;92431.22;;;7.44;68.01
85153;BME280;75520;43.358;19.362;2024-02-23T00:25:32;92389.69;;;7.21;68.31
85153;BME280;75520;43.358;19.362;2024-02-23T00:27:58;92417.00;;;7.37;68.35
85153;BME280;75520;43.358;19.362;2024-02-23T00:30:23;92424.63;;;7.38;68.26
85153;BME280;75520;43.358;19.362;2024-02-23T00:32:49;92417.78;;;7.37;67.95
85153;BME280;75520;43.358;19.362;2024-02-23T00:35:14;92406.13;;;7.38;67.92
85153;BME280;75520;43.358;19.362;2024-02-23T00:37:40;92405.22;;;7.34;67.81
85153;BME280;75520;43.358;19.362;2024-02-23T00:40:06;92406.00;;;7.35;67.85
85153;BME280;75520;43.358;19.362;2024-02-23T00:42:31;92414.06;;;7.38;68.06
85153;BME280;75520;43.358;19.362;2024-02-23T00:44:57;92406.00;;;7.35;67.83
85153;BME280;75520;43.358;19.362;2024-02-23T00:47:22;92341.44;;;6.99;68.26
85153;BME280;75520;43.358;19.362;2024-02-23T00:49:48;92398.72;;;7.32;67.98
85153;BME280;75520;43.358;19.362;2024-02-23T00:52:14;92409.28;;;7.32;67.91
85153;BME280;75520;43.358;19.362;2024-02-23T00:54:39;92407.41;;;7.32;68.24
85153;BME280;75520;43.358;19.362;2024-02-23T00:57:05;92408.19;;;7.33;67.96
85153;BME280;75520;43.358;19.362;2024-02-23T00:59:30;92360.38;;;7.14;67.92
85153;BME280;75520;43.358;19.362;2024-02-23T01:01:56;92400.53;;;7.40;68.02
85153;BME280;75520;43.358;19.362;2024-02-23T01:04:22;92384.69;;;7.40;68.16
85153;BME280;75520;43.358;19.362;2024-02-23T01:06:47;92389.06;;;7.36;67.90
85153;BME280;75520;43.358;19.362;2024-02-23T01:09:13;92344.09;;;7.12;67.87
85153;BME280;75520;43.358;19.362;2024-02-23T01:11:38;92366.28;;;7.31;68.18
85153;BME280;75520;43.358;19.362;2024-02-23T01:14:04;92371.34;;;7.36;68.96
85153;BME280;75520;43.358;19.362;2024-02-23T01:16:31;92380.59;;;7.42;68.51
85153;BME280;75520;43.358;19.362;2024-02-23T01:18:57;92376.78;;;7.40;68.24
85153;BME280;75520;43.358;19.362;2024-02-23T01:21:23;92386.56;;;7.39;68.36
85153;BME280;75520;43.358;19.362;2024-02-23T01:23:49;92374.44;;;7.38;69.23
85153;BME280;75520;43.358;19.362;2024-02-23T01:26:14;92380.50;;;7.39;68.57
85153;BME280;75520;43.358;19.362;2024-02-23T01:28:40;92380.50;;;7.39;69.25
85153;BME280;75520;43.358;19.362;2024-02-23T01:31:08;92372.59;;;7.39;69.29
85153;BME280;75520;43.358;19.362;2024-02-23T01:33:36;92365.75;;;7.38;69.34
85153;BME280;75520;43.358;19.362;2024-02-23T01:36:07;92367.94;;;7.36;69.18
85153;BME280;75520;43.358;19.362;2024-02-23T01:38:33;92372.78;;;7.34;69.22
85153;BME280;75520;43.358;19.362;2024-02-23T01:40:59;92374.63;;;7.33;69.33
85153;BME280;75520;43.358;19.362;2024-02-23T01:43:25;92364.84;;;7.34;69.24
85153;BME280;75520;43.358;19.362;2024-02-23T01:45:51;92368.41;;;7.38;69.29
85153;BME280;75520;43.358;19.362;2024-02-23T01:48:16;92349.22;;;7.29;69.19
85153;BME280;75520;43.358;19.362;2024-02-23T01:50:43;92359.25;;;7.35;69.53
85153;BME280;75520;43.358;19.362;2024-02-23T01:53:10;92351.34;;;7.35;70.13
85153;BME280;75520;43.358;19.362;2024-02-23T01:55:36;92317.19;;;7.18;69.75
85153;BME280;75520;43.358;19.362;2024-02-23T01:58:04;92343.19;;;7.40;69.65
85153;BME280;75520;43.358;19.362;2024-02-23T02:00:30;92333.63;;;7.36;69.74
85153;BME280;75520;43.358;19.362;2024-02-23T02:02:56;92347.59;;;7.36;69.82
85153;BME280;75520;43.358;19.362;2024-02-23T02:05:22;92343.72;;;7.34;69.90
85153;BME280;75520;43.358;19.362;2024-02-23T02:07:50;92339.34;;;7.38;70.45
85153;BME280;75520;43.358;19.362;2024-02-23T02:10:20;92333.28;;;7.37;70.27
85153;BME280;75520;43.358;19.362;2024-02-23T02:12:46;92300.91;;;7.16;70.54
85153;BME280;75520;43.358;19.362;2024-02-23T02:15:11;92307.09;;;7.20;70.59
85153;BME280;75520;43.358;19.362;2024-02-23T02:17:37;92341.44;;;7.44;70.01
85153;BME280;75520;43.358;19.362;2024-02-23T02:20:03;92288.81;;;7.15;70.49
85153;BME280;75520;43.358;19.362;2024-02-23T02:22:35;92322.50;;;7.42;70.46
85153;BME280;75520;43.358;19.362;2024-02-23T02:25:00;92327.28;;;7.49;70.09
85153;BME280;75520;43.358;19.362;2024-02-23T02:27:26;92325.06;;;7.51;70.01
85153;BME280;75520;43.358;19.362;2024-02-23T02:29:51;92316.94;;;7.56;69.66
85153;BME280;75520;43.358;19.362;2024-02-23T02:32:17;92312.88;;;7.59;69.83
85153;BME280;75520;43.358;19.362;2024-02-23T02:34:42;92309.88;;;7.60;70.14
85153;BME280;75520;43.358;19.362;2024-02-23T02:37:08;92289.75;;;7.56;70.51
85153;BME280;75520;43.358;19.362;2024-02-23T02:39:33;92283.81;;;7.59;69.27
85153;BME280;75520;43.358;19.362;2024-02-23T02:41:59;92302.09;;;7.76;69.92
85153;BME280;75520;43.358;19.362;2024-02-23T02:44:24;92299.78;;;7.74;69.43
85153;BME280;75520;43.358;19.362;2024-02-23T02:46:52;92300.41;;;7.71;69.75
85153;BME280;75520;43.358;19.362;2024-02-23T02:49:17;92296.69;;;7.72;69.61
85153;BME280;75520;43.358;19.362;2024-02-23T02:51:42;92303.84;;;7.72;69.74
85153;BME280;75520;43.358;19.362;2024-02-23T02:54:08;92290.50;;;7.80;69.50
85153;BME280;75520;43.358;19.362;2024-02-23T02:56:34;92292.16;;;7.85;69.10
85153;BME280;75520;43.358;19.362;2024-02-23T02:58:59;92264.44;;;7.67;69.20
85153;BME280;75520;43.358;19.362;2024-02-23T03:01:25;92286.00;;;7.93;69.22
85153;BME280;75520;43.358;19.362;2024-02-23T03:03:51;92273.88;;;7.92;69.19
85153;BME280;75520;43.358;19.362;2024-02-23T03:06:17;92279.63;;;7.94;69.06
85153;BME280;75520;43.358;19.362;2024-02-23T03:08:42;92272.22;;;8.00;68.86
85153;BME280;75520;43.358;19.362;2024-02-23T03:11:08;92280.25;;;8.03;68.52
85153;BME280;75520;43.358;19.362;2024-02-23T03:13:33;92282.25;;;8.06;68.77
85153;BME280;75520;43.358;19.362;2024-02-23T03:15:59;92286.97;;;8.13;68.46
85153;BME280;75520;43.358;19.362;2024-02-23T03:18:25;92289.63;;;8.13;68.31
85153;BME280;75520;43.358;19.362;2024-02-23T03:20:53;92287.94;;;8.20;68.50
85153;BME280;75520;43.358;19.362;2024-02-23T03:23:18;92266.47;;;8.22;68.31
85153;BME280;75520;43.358;19.362;2024-02-23T03:25:44;92242.38;;;7.99;68.15
85153;BME280;75520;43.358;19.362;2024-02-23T03:28:09;92269.88;;;8.23;68.20
85153;BME280;75520;43.358;19.362;2024-02-23T03:30:35;92209.50;;;7.85;68.46
85153;BME280;75520;43.358;19.362;2024-02-23T03:33:00;92249.31;;;8.04;68.78
85153;BME280;75520;43.358;19.362;2024-02-23T03:35:26;92265.94;;;8.16;68.50
85153;BME280;75520;43.358;19.362;2024-02-23T03:37:51;92265.50;;;8.14;68.97
85153;BME280;75520;43.358;19.362;2024-02-23T03:40:17;92265.94;;;8.16;68.73
85153;BME280;75520;43.358;19.362;2024-02-23T03:42:44;92262.06;;;8.14;68.57
85153;BME280;75520;43.358;19.362;2024-02-23T03:45:10;92256.03;;;8.13;69.29
85153;BME280;75520;43.358;19.362;2024-02-23T03:47:35;92260.97;;;8.15;68.74
85153;BME280;75520;43.358;19.362;2024-02-23T03:50:01;92199.50;;;7.78;68.74
85153;BME280;75520;43.358;19.362;2024-02-23T03:52:26;92254.47;;;8.12;68.60
85153;BME280;75520;43.358;19.362;2024-02-23T03:54:52;92260.88;;;8.11;68.81
85153;BME280;75520;43.358;19.362;2024-02-23T03:57:20;92264.72;;;8.14;68.72
85153;BME280;75520;43.358;19.362;2024-02-23T03:59:55;92267.38;;;8.14;68.87
85153;BME280;75520;43.358;19.362;2024-02-23T04:02:21;92260.41;;;8.09;68.84
85153;BME280;75520;43.358;19.362;2024-02-23T04:04:47;92282.53;;;8.17;68.55
85153;BME280;75520;43.358;19.362;2024-02-23T04:07:13;92279.16;;;8.16;68.43
85153;BME280;75520;43.358;19.362;2024-02-23T04:09:39;92269.69;;;8.15;68.44
85153;BME280;75520;43.358;19.362;2024-02-23T04:12:04;92273.41;;;8.14;68.43
85153;BME280;75520;43.358;19.362;2024-02-23T04:14:32;92246.34;;;7.93;68.65
85153;BME280;75520;43.358;19.362;2024-02-23T04:17:03;92279.38;;;8.11;68.48
85153;BME280;75520;43.358;19.362;2024-02-23T04:19:29;92280.59;;;8.14;68.13
85153;BME280;75520;43.358;19.362;2024-02-23T04:21:54;92279.47;;;8.15;68.10
85153;BME280;75520;43.358;19.362;2024-02-23T04:24:20;92279.56;;;8.18;67.74
85153;BME280;75520;43.358;19.362;2024-02-23T04:26:46;92255.59;;;7.99;67.70
85153;BME280;75520;43.358;19.362;2024-02-23T04:29:11;92230.19;;;7.82;67.95
85153;BME280;75520;43.358;19.362;2024-02-23T04:31:37;92282.22;;;8.18;67.82
85153;BME280;75520;43.358;19.362;2024-02-23T04:34:03;92278.78;;;8.18;67.88
85153;BME280;75520;43.358;19.362;2024-02-23T04:36:29;92253.19;;;8.06;67.63
85153;BME280;75520;43.358;19.362;2024-02-23T04:38:54;92278.03;;;8.17;67.73
85153;BME280;75520;43.358;19.362;2024-02-23T04:41:20;92267.69;;;8.12;67.75
85153;BME280;75520;43.358;19.362;2024-02-23T04:43:50;92278.72;;;8.14;67.69
85153;BME280;75520;43.358;19.362;2024-02-23T04:46:15;92274.53;;;8.13;67.68
85153;BME280;75520;43.358;19.362;2024-02-23T04:48:41;92281.03;;;8.16;67.74
85153;BME280;75520;43.358;19.362;2024-02-23T04:51:07;92281.34;;;8.14;67.60
85153;BME280;75520;43.358;19.362;2024-02-23T04:53:38;92277.06;;;8.10;68.23
85153;BME280;75520;43.358;19.362;2024-02-23T04:56:04;92286.19;;;8.12;67.54
85153;BME280;75520;43.358;19.362;2024-02-23T04:58:30;92288.72;;;8.09;67.57
85153;BME280;75520;43.358;19.362;2024-02-23T05:00:55;92289.16;;;8.11;67.84
85153;BME280;75520;43.358;19.362;2024-02-23T05:03:22;92306.56;;;8.12;68.09
85153;BME280;75520;43.358;19.362;2024-02-23T05:05:48;92317.47;;;8.10;68.88
85153;BME280;75520;43.358;19.362;2024-02-23T05:08:19;92330.47;;;8.03;70.35
85153;BME280;75520;43.358;19.362;2024-02-23T05:10:46;92315.97;;;7.97;70.90
85153;BME280;75520;43.358;19.362;2024-02-23T05:13:11;92298.69;;;7.88;70.28
85153;BME280;75520;43.358;19.362;2024-02-23T05:15:37;92296.69;;;7.85;70.44
85153;BME280;75520;43.358;19.362;2024-02-23T05:18:02;92298.09;;;7.82;70.32
85153;BME280;75520;43.358;19.362;2024-02-23T05:20:28;92251.88;;;7.52;69.58
85153;BME280;75520;43.358;19.362;2024-02-23T05:22:54;92308.03;;;7.85;69.63
85153;BME280;75520;43.358;19.362;2024-02-23T05:25:19;92314.84;;;7.86;69.10
85153;BME280;75520;43.358;19.362;2024-02-23T05:27:45;92313.31;;;7.85;68.89
85153;BME280;75520;43.358;19.362;2024-02-23T05:30:11;92313.75;;;7.87;68.42
85153;BME280;75520;43.358;19.362;2024-02-23T05:32:36;92302.31;;;7.95;67.84
85153;BME280;75520;43.358;19.362;2024-02-23T05:35:02;92298.09;;;8.06;67.72
85153;BME280;75520;43.358;19.362;2024-02-23T05:37:28;92298.97;;;8.10;67.34
85153;BME280;75520;43.358;19.362;2024-02-23T05:39:54;92310.44;;;8.14;67.17
85153;BME280;75520;43.358;19.362;2024-02-23T05:42:19;92291.47;;;8.12;67.07
85153;BME280;75520;43.358;19.362;2024-02-23T05:44:45;92309.09;;;8.20;66.51
85153;BME280;75520;43.358;19.362;2024-02-23T05:47:11;92290.25;;;8.22;66.59
85153;BME280;75520;43.358;19.362;2024-02-23T05:49:39;92297.97;;;8.15;66.39
85153;BME280;75520;43.358;19.362;2024-02-23T05:52:04;92246.03;;;7.95;66.51
85153;BME280;75520;43.358;19.362;2024-02-23T05:54:30;92288.81;;;8.25;66.32
85153;BME280;75520;43.358;19.362;2024-02-23T05:56:55;92302.38;;;8.23;66.32
85153;BME280;75520;43.358;19.362;2024-02-23T05:59:21;92298.19;;;8.22;66.05
85153;BME280;75520;43.358;19.362;2024-02-23T06:01:46;92316.38;;;8.24;65.24
85153;BME280;75520;43.358;19.362;2024-02-23T06:04:12;92313.47;;;8.29;65.64
85153;BME280;75520;43.358;19.362;2024-02-23T06:06:37;92306.31;;;8.29;65.43
85153;BME280;75520;43.358;19.362;2024-02-23T06:09:06;92308.88;;;8.38;63.90
85153;BME280;75520;43.358;19.362;2024-02-23T06:11:31;92306.66;;;8.40;64.53
85153;BME280;75520;43.358;19.362;2024-02-23T06:13:57;92303.09;;;8.48;64.12
85153;BME280;75520;43.358;19.362;2024-02-23T06:16:22;92306.19;;;8.50;64.29
85153;BME280;75520;43.358;19.362;2024-02-23T06:18:48;92313.69;;;8.48;63.52
85153;BME280;75520;43.358;19.362;2024-02-23T06:21:17;92307.75;;;8.51;63.64
85153;BME280;75520;43.358;19.362;2024-02-23T06:23:45;92318.00;;;8.52;64.23
85153;BME280;75520;43.358;19.362;2024-02-23T06:26:11;92331.22;;;8.52;63.48
85153;BME280;75520;43.358;19.362;2024-02-23T06:28:37;92342.91;;;8.51;64.25
85153;BME280;75520;43.358;19.362;2024-02-23T06:31:05;92314.06;;;8.34;64.51
85153;BME280;75520;43.358;19.362;2024-02-23T06:33:31;92333.88;;;8.52;64.83
85153;BME280;75520;43.358;19.362;2024-02-23T06:35:56;92334.63;;;8.53;64.74
85153;BME280;75520;43.358;19.362;2024-02-23T06:38:22;92353.16;;;8.53;64.84
85153;BME280;75520;43.358;19.362;2024-02-23T06:40:47;92331.22;;;8.52;64.67
85153;BME280;75520;43.358;19.362;2024-02-23T06:43:13;92333.88;;;8.52;63.78
85153;BME280;75520;43.358;19.362;2024-02-23T06:45:38;92294.97;;;8.29;64.13
85153;BME280;75520;43.358;19.362;2024-02-23T06:48:05;92324.25;;;8.60;64.44
85153;BME280;75520;43.358;19.362;2024-02-23T06:50:30;92283.41;;;8.45;64.75
85153;BME280;75520;43.358;19.362;2024-02-23T06:52:56;92308.13;;;8.65;64.38
85153;BME280;75520;43.358;19.362;2024-02-23T06:55:21;92319.84;;;8.64;64.29
85153;BME280;75520;43.358;19.362;2024-02-23T06:57:47;92322.13;;;8.66;62.83
85153;BME280;75520;43.358;19.362;2024-02-23T07:00:13;92291.34;;;8.45;63.09
85153;BME280;75520;43.358;19.362;2024-02-23T07:02:38;92299.56;;;8.56;63.24
85153;BME280;75520;43.358;19.362;2024-02-23T07:05:04;92311.84;;;8.76;62.27
85153;BME280;75520;43.358;19.362;2024-02-23T07:07:32;92323.31;;;8.80;62.71
85153;BME280;75520;43.358;19.362;2024-02-23T07:10:02;92313.50;;;8.81;62.27
85153;BME280;75520;43.358;19.362;2024-02-23T07:12:28;92286.09;;;8.61;62.74
85153;BME280;75520;43.358;19.362;2024-02-23T07:14:55;92302.25;;;8.84;62.36
85153;BME280;75520;43.358;19.362;2024-02-23T07:17:21;92329.44;;;8.84;62.50
85153;BME280;75520;43.358;19.362;2024-02-23T07:19:46;92330.47;;;8.80;62.90
85153;BME280;75520;43.358;19.362;2024-02-23T07:22:12;92290.00;;;8.51;63.34
85153;BME280;75520;43.358;19.362;2024-02-23T07:24:41;92335.09;;;8.83;62.53
85153;BME280;75520;43.358;19.362;2024-02-23T07:27:07;92332.88;;;8.85;63.08
85153;BME280;75520;43.358;19.362;2024-02-23T07:29:33;92340.47;;;8.86;62.65
85153;BME280;75520;43.358;19.362;2024-02-23T07:31:58;92326.47;;;8.86;62.42
85153;BME280;75520;43.358;19.362;2024-02-23T07:34:24;92325.28;;;8.83;61.97
85153;BME280;75520;43.358;19.362;2024-02-23T07:36:52;92325.81;;;8.89;61.97
85153;BME280;75520;43.358;19.362;2024-02-23T07:39:18;92341.34;;;8.90;62.76
85153;BME280;75520;43.358;19.362;2024-02-23T07:41:43;92265.66;;;8.46;62.82
85153;BME280;75520;43.358;19.362;2024-02-23T07:44:09;92337.59;;;8.91;63.21
85153;BME280;75520;43.358;19.362;2024-02-23T07:46:34;92346.66;;;8.90;62.61
85153;BME280;75520;43.358;19.362;2024-02-23T07:49:00;92339.81;;;8.89;62.47
85153;BME280;75520;43.358;19.362;2024-02-23T07:51:25;92342.22;;;8.94;62.65
85153;BME280;75520;43.358;19.362;2024-02-23T07:53:51;92331.13;;;8.77;62.57
85153;BME280;75520;43.358;19.362;2024-02-23T07:56:16;92371.69;;;8.93;61.68
85153;BME280;75520;43.358;19.362;2024-02-23T07:58:42;92334.34;;;8.82;59.54
85153;BME280;75520;43.358;19.362;2024-02-23T08:01:08;92365.56;;;9.05;60.65
85153;BME280;75520;43.358;19.362;2024-02-23T08:03:33;92359.94;;;9.06;60.66
85153;BME280;75520;43.358;19.362;2024-02-23T08:05:59;92358.38;;;9.05;61.68
85153;BME280;75520;43.358;19.362;2024-02-23T08:08:26;92325.38;;;8.87;61.61
85153;BME280;75520;43.358;19.362;2024-02-23T08:10:53;92326.47;;;8.86;61.81
85153;BME280;75520;43.358;19.362;2024-02-23T08:13:18;92361.94;;;8.97;61.59
85153;BME280;75520;43.358;19.362;2024-02-23T08:15:44;92360.75;;;8.94;62.10
85153;BME280;75520;43.358;19.362;2024-02-23T08:18:09;92364.53;;;8.93;61.90
85153;BME280;75520;43.358;19.362;2024-02-23T08:20:35;92378.41;;;8.90;62.17
85153;BME280;75520;43.358;19.362;2024-02-23T08:23:01;92347.25;;;8.72;61.52
85153;BME280;75520;43.358;19.362;2024-02-23T08:25:27;92379.19;;;8.91;61.85
85153;BME280;75520;43.358;19.362;2024-02-23T08:27:56;92379.50;;;8.89;62.29
85153;BME280;75520;43.358;19.362;2024-02-23T08:30:22;92381.06;;;8.90;61.98
85153;BME280;75520;43.358;19.362;2024-02-23T08:32:47;92383.38;;;8.92;62.15
85153;BME280;75520;43.358;19.362;2024-02-23T08:35:13;92383.13;;;8.97;62.38
85153;BME280;75520;43.358;19.362;2024-02-23T08:37:40;92380.59;;;9.01;62.52
85153;BME280;75520;43.358;19.362;2024-02-23T08:40:07;92377.25;;;9.04;62.44
85153;BME280;75520;43.358;19.362;2024-02-23T08:42:33;92370.84;;;9.05;62.03
85153;BME280;75520;43.358;19.362;2024-02-23T08:44:59;92353.69;;;8.99;61.83
85153;BME280;75520;43.358;19.362;2024-02-23T08:47:24;92366.53;;;9.12;62.23
85153;BME280;75520;43.358;19.362;2024-02-23T08:49:53;92326.09;;;9.00;61.94
85153;BME280;75520;43.358;19.362;2024-02-23T08:52:18;92361.94;;;9.25;62.08
85153;BME280;75520;43.358;19.362;2024-02-23T08:54:44;92359.75;;;9.27;62.18
85153;BME280;75520;43.358;19.362;2024-02-23T08:57:09;92318.13;;;9.12;62.09
85153;BME280;75520;43.358;19.362;2024-02-23T08:59:35;92354.81;;;9.41;61.45
85153;BME280;75520;43.358;19.362;2024-02-23T09:02:00;92353.78;;;9.46;62.18
85153;BME280;75520;43.358;19.362;2024-02-23T09:04:26;92362.78;;;9.57;61.90
85153;BME280;75520;43.358;19.362;2024-02-23T09:06:51;92364.34;;;9.58;61.83
85153;BME280;75520;43.358;19.362;2024-02-23T09:09:18;92365.19;;;9.62;61.61
85153;BME280;75520;43.358;19.362;2024-02-23T09:11:43;92364.84;;;9.63;61.94
85153;BME280;75520;43.358;19.362;2024-02-23T09:14:09;92378.28;;;9.71;62.20
85153;BME280;75520;43.358;19.362;2024-02-23T09:16:34;92366.56;;;9.72;62.17
85153;BME280;75520;43.358;19.362;2024-02-23T09:19:00;92370.84;;;9.76;61.91
85153;BME280;75520;43.358;19.362;2024-02-23T09:21:25;92336.41;;;9.60;61.98
85153;BME280;75520;43.358;19.362;2024-02-23T09:23:51;92369.13;;;9.84;61.04
85153;BME280;75520;43.358;19.362;2024-02-23T09:26:16;92373.16;;;9.93;61.42
85153;BME280;75520;43.358;19.362;2024-02-23T09:28:43;92368.13;;;9.88;61.50
85153;BME280;75520;43.358;19.362;2024-02-23T09:31:10;92342.47;;;9.77;60.86
85153;BME280;75520;43.358;19.362;2024-02-23T09:33:36;92363.31;;;9.94;60.58
85153;BME280;75520;43.358;19.362;2024-02-23T09:36:02;92387.06;;;10.18;60.83
85153;BME280;75520;43.358;19.362;2024-02-23T09:38:27;92381.75;;;10.18;60.57
85153;BME280;75520;43.358;19.362;2024-02-23T09:40:53;92386.28;;;10.18;60.45
85153;BME280;75520;43.358;19.362;2024-02-23T09:43:21;92360.16;;;10.04;59.93
85153;BME280;75520;43.358;19.362;2024-02-23T09:45:50;92377.44;;;10.14;59.86
85153;BME280;75520;43.358;19.362;2024-02-23T09:48:18;92378.38;;;10.21;60.20
85153;BME280;75520;43.358;19.362;2024-02-23T09:50:44;92375.75;;;10.21;60.92
85153;BME280;75520;43.358;19.362;2024-02-23T09:53:11;92382.34;;;10.27;60.95
85153;BME280;75520;43.358;19.362;2024-02-23T09:55:38;92365.66;;;10.27;60.20
85153;BME280;75520;43.358;19.362;2024-02-23T09:58:04;92392.94;;;10.27;60.87
85153;BME280;75520;43.358;19.362;2024-02-23T10:00:33;92357.34;;;9.97;61.84
85153;BME280;75520;43.358;19.362;2024-02-23T10:03:00;92391.13;;;10.16;62.24
85153;BME280;75520;43.358;19.362;2024-02-23T10:05:30;92382.41;;;10.15;62.09
85153;BME280;75520;43.358;19.362;2024-02-23T10:07:56;92371.78;;;10.15;61.73
85153;BME280;75520;43.358;19.362;2024-02-23T10:10:30;92379.66;;;10.12;60.24
85153;BME280;75520;43.358;19.362;2024-02-23T10:12:58;92375.91;;;10.13;61.29
85153;BME280;75520;43.358;19.362;2024-02-23T10:15:24;92373.78;;;10.18;60.97
85153;BME280;75520;43.358;19.362;2024-02-23T10:17:49;92376.66;;;10.29;61.36
85153;BME280;75520;43.358;19.362;2024-02-23T10:20:15;92382.59;;;10.38;60.71
85153;BME280;75520;43.358;19.362;2024-02-23T10:22:40;92377.09;;;10.47;60.68
85153;BME280;75520;43.358;19.362;2024-02-23T10:25:06;92371.94;;;10.54;60.60
85153;BME280;75520;43.358;19.362;2024-02-23T10:27:31;92361.56;;;10.64;60.46
85153;BME280;75520;43.358;19.362;2024-02-23T10:29:58;92363.34;;;10.76;60.31
85153;BME280;75520;43.358;19.362;2024-02-23T10:32:25;92376.88;;;10.90;60.28
85153;BME280;75520;43.358;19.362;2024-02-23T10:34:52;92382.34;;;10.97;59.87
85153;BME280;75520;43.358;19.362;2024-02-23T10:37:18;92369.84;;;10.98;59.88
85153;BME280;75520;43.358;19.362;2024-02-23T10:39:45;92366.75;;;10.96;60.24
85153;BME280;75520;43.358;19.362;2024-02-23T10:42:12;92354.66;;;10.98;59.78
85153;BME280;75520;43.358;19.362;2024-02-23T10:44:39;92369.91;;;11.01;59.89
85153;BME280;75520;43.358;19.362;2024-02-23T10:47:04;92358.44;;;10.97;60.00
85153;BME280;75520;43.358;19.362;2024-02-23T10:49:31;92342.38;;;10.90;60.13
85153;BME280;75520;43.358;19.362;2024-02-23T10:51:57;92366.00;;;11.14;59.82
85153;BME280;75520;43.358;19.362;2024-02-23T10:54:22;92350.34;;;11.09;59.55
85153;BME280;75520;43.358;19.362;2024-02-23T10:56:50;92343.28;;;11.17;59.80
85153;BME280;75520;43.358;19.362;2024-02-23T10:59:17;92339.28;;;11.27;59.61
85153;BME280;75520;43.358;19.362;2024-02-23T11:01:51;92343.44;;;11.24;58.99
85153;BME280;75520;43.358;19.362;2024-02-23T11:04:20;92331.09;;;11.35;59.38
85153;BME280;75520;43.358;19.362;2024-02-23T11:06:54;92333.34;;;11.33;58.52
85153;BME280;75520;43.358;19.362;2024-02-23T11:09:24;92331.31;;;11.27;58.95
85153;BME280;75520;43.358;19.362;2024-02-23T11:11:57;92329.16;;;11.13;59.11
85153;BME280;75520;43.358;19.362;2024-02-23T11:14:34;92328.63;;;11.04;59.28
85153;BME280;75520;43.358;19.362;2024-02-23T11:17:03;92306.66;;;10.88;59.86
85153;BME280;75520;43.358;19.362;2024-02-23T11:19:36;92333.56;;;10.86;59.59
85153;BME280;75520;43.358;19.362;2024-02-23T11:22:03;92341.38;;;10.79;60.29
85153;BME280;75520;43.358;19.362;2024-02-23T11:24:29;92340.94;;;10.77;60.39
85153;BME280;75520;43.358;19.362;2024-02-23T11:26:59;92356.75;;;10.70;60.84
85153;BME280;75520;43.358;19.362;2024-02-23T11:29:29;92346.22;;;10.58;59.96
85153;BME280;75520;43.358;19.362;2024-02-23T11:31:55;92337.78;;;10.52;60.34
85153;BME280;75520;43.358;19.362;2024-02-23T11:34:29;92342.75;;;10.54;60.66
85153;BME280;75520;43.358;19.362;2024-02-23T11:36:55;92338.41;;;10.30;60.48
85153;BME280;75520;43.358;19.362;2024-02-23T11:39:22;92339.84;;;10.43;60.73
85153;BME280;75520;43.358;19.362;2024-02-23T11:41:50;92344.31;;;10.39;60.22
85153;BME280;75520;43.358;19.362;2024-02-23T11:44:16;92345.78;;;10.36;60.42
85153;BME280;75520;43.358;19.362;2024-02-23T11:46:46;92335.31;;;10.44;60.77
85153;BME280;75520;43.358;19.362;2024-02-23T11:49:13;92338.81;;;10.48;60.57
85153;BME280;75520;43.358;19.362;2024-02-23T11:51:38;92272.66;;;10.20;60.41
85153;BME280;75520;43.358;19.362;2024-02-23T11:54:04;92317.56;;;10.63;60.19
85153;BME280;75520;43.358;19.362;2024-02-23T11:56:30;92331.75;;;10.71;60.16
85153;BME280;75520;43.358;19.362;2024-02-23T11:58:55;92329.16;;;10.74;59.82
85153;BME280;75520;43.358;19.362;2024-02-23T12:01:21;92287.78;;;10.54;59.47
85153;BME280;75520;43.358;19.362;2024-02-23T12:03:47;92326.09;;;10.72;58.70
85153;BME280;75520;43.358;19.362;2024-02-23T12:06:14;92327.88;;;10.68;59.34
85153;BME280;75520;43.358;19.362;2024-02-23T12:08:42;92357.41;;;10.67;58.17
85153;BME280;75520;43.358;19.362;2024-02-23T12:11:11;92298.19;;;10.44;59.25
85153;BME280;75520;43.358;19.362;2024-02-23T12:13:37;92325.72;;;10.55;60.05
85153;BME280;75520;43.358;19.362;2024-02-23T12:16:03;92323.50;;;10.57;59.84
85153;BME280;75520;43.358;19.362;2024-02-23T12:18:33;92319.13;;;10.49;59.49
85153;BME280;75520;43.358;19.362;2024-02-23T12:21:09;92330.50;;;10.49;59.87
85153;BME280;75520;43.358;19.362;2024-02-23T12:23:41;92327.72;;;10.42;60.44
85153;BME280;75520;43.358;19.362;2024-02-23T12:26:07;92315.84;;;10.36;60.93
85153;BME280;75520;43.358;19.362;2024-02-23T12:28:33;92328.88;;;10.25;60.75
85153;BME280;75520;43.358;19.362;2024-02-23T12:31:02;92319.88;;;10.14;61.47
85153;BME280;75520;43.358;19.362;2024-02-23T12:33:28;92331.84;;;10.08;61.65
85153;BME280;75520;43.358;19.362;2024-02-23T12:35:55;92318.06;;;10.02;61.86
85153;BME280;75520;43.358;19.362;2024-02-23T12:38:22;92320.28;;;10.00;62.23
85153;BME280;75520;43.358;19.362;2024-02-23T12:40:47;92304.06;;;9.86;62.35
85153;BME280;75520;43.358;19.362;2024-02-23T12:43:13;92326.38;;;10.01;62.57
85153;BME280;75520;43.358;19.362;2024-02-23T12:45:38;92309.38;;;9.86;62.57
85153;BME280;75520;43.358;19.362;2024-02-23T12:48:05;92328.34;;;10.04;62.85
85153;BME280;75520;43.358;19.362;2024-02-23T12:50:30;92329.19;;;10.08;62.40
85153;BME280;75520;43.358;19.362;2024-02-23T12:52:56;92318.66;;;10.12;62.17